AirNav   ATP
 
 1560 users online  

IL44 Arrow Heliport
Fox Lake, Illinois, USA

GOING TO FOX LAKE?


FAA INFORMATION EFFECTIVE 20 JULY 2017

Location

FAA Identifier: IL44
Lat/Long: 42-24-12.0740N / 088-11-15.3080W
42-24.201233N / 088-11.255133W
42.4033539 / -88.1875856
(estimated)
Elevation: 738 ft. / 225 m (estimated)
Variation: 01W (1985)
Time zone: UTC -5 (UTC -6 during Standard Time)
Zip code: 60020

Heliport Operations

Heliport use: Private use. Permission required prior to landing
Activation date: 06/1988
Control tower: no
ARTCC: CHICAGO CENTER
FSS: KANKAKEE FLIGHT SERVICE STATION
Attendance: UNATNDD
Wind indicator: yes
Segmented circle: no

Heliport Communications

WX ASOS at UGN (14 nm E): PHONE 847-782-0876
WX ASOS at ENW (16 nm NE): PHONE 262-652-7730
WX AWOS-3 at BUU (18 nm N): 114.5 (262-757-0907)

Nearby radio navigation aids

VOR radial/distance  VOR name  Freq  Var
OBKr318/15.1NORTHBROOK VOR/DME113.0002W
BUUr165/17.9BURBUN VOR/DME114.5001W
ORDr331/27.9CHICAGO O'HARE VOR/DME113.9002E
DPAr011/31.6DUPAGE VOR/DME108.4002E

 
NDB name  Hdg/Dist  Freq  Var  ID
CODEE219/11.838902WEN . -.
LAKE LAWN135/25.240400WLVV .-.. ...- ...-
JANESVILLE106/39.837503EJVL .--- ...- .-..

Heliport Services

Runway Information

Helipad H1

Dimensions: 60 x 60 ft. / 18 x 18 m
Surface: asphalt
Traffic pattern: leftleft

Heliport Ownership and Management from official FAA records

Ownership: Privately-owned
Owner: TRINSKI & SON
100 N ROUTE 12
FOX LAKE, IL 60020
Phone (847) 366-6453
Manager: MIKE TRINSKI
100 N ROUTE 12
FOX LAKE, IL 60020
Phone (847) 366-6453

Heliport Operational Statistics

Aircraft based on the field: 2
Single engine airplanes: 1
Helicopters: 1
    

Instrument Procedures

There are no published instrument procedures at IL44.

Some nearby airports with instrument procedures:

C81 - Campbell Airport (7 nm SE)
10C - Galt Field Airport (8 nm W)
3CK - Lake in the Hills Airport (13 nm SW)
KUGN - Waukegan Regional Airport (14 nm E)
C02 - Grand Geneva Resort Airport (16 nm NW)
KENW - Kenosha Regional Airport (16 nm NE)
KBUU - Burlington Municipal Airport (18 nm N)
 
Loc | Ops | Rwys | IFR | FBO | Links
Com | Nav | Svcs | Stats | Notes


 
Area around IL44 (Arrow Heliport)
 
Road maps at: MapQuest Bing Google
 
Aerial photo
No photo
 
Sectional chart

 
Airport distance calculator
Flying to Arrow Heliport? Find the distance to fly.

From to IL44

Sunrise and sunset
Times for 28-Jul-2017
 Local
(UTC-5)
 Zulu
(UTC)
Morning civil twilight05:1010:10
Sunrise05:4210:42
Sunset20:1601:16
Evening civil twilight20:4901:49

Current date and time
Zulu (UTC)  28-Jul-2017 17:10:17
Local (UTC-5)  28-Jul-2017 12:10:17
 
METAR
KUGN 
14nm E 
281658Z 03010KT 10SM SCT018 23/18 A3003 RMK AO2 T02280178
KENW 
16nm NE 
281700Z 03008G16KT 10SM FEW022 FEW035 24/17 A3004 RMK AO2 T02390167
KBUU 
18nm N 
281655Z AUTO 06008KT 10SM SCT028 23/17 A3004 RMK AO2 T02310172
KPWK 
21nm SE 
281701Z 05011KT 10SM BKN023 23/18 A3003 RMK AO2 T02330178
KRAC 
27nm NE 
281653Z AUTO 03012KT 10SM SCT015 23/19 A3005 RMK AO2 SLP173 T02280189
KORD 
28nm SE 
281651Z 05013KT 10SM SCT028 SCT250 26/16 A3000 RMK AO2 SLP155 T02560161
TAF
KENW 
16nm NE 
281449Z 2815/2912 03011G18KT P6SM SCT015 TEMPO 2815/2818 BKN015 FM281800 02011G18KT P6SM SCT035 FM290600 09006KT P6SM SKC
NOTAMs
Click for the latest NOTAMs
NOTAMs are issued by the DoD/FAA and will open in a separate window not controlled by AirNav.

 

 
 

Would you like to see your business listed on this page?

 If your business provides an interesting product or service to pilots, flight crews, aircraft, or users of the Arrow Heliport, you should consider listing it here.  To start the listing process, click on the button below
 
Add a business
 

Other Pages about Arrow Heliport

Update a link
 
Copyright © AirNav, LLC. All rights reserved. Privacy Policy  Contact